H75 weather

Hernando Village Airpark, Inc Airport
Hernando, Mississippi, United States

Public forecast

Using degrees Fahrenheit for public forecast. Weather courtesy of forecast.io.

Closest aviation weather report (METAR) to Hernando Village Airpark, Inc Airport

Closest report is Memphis International Airport, 15.0 nm (27.7 km) NNE. Retrieved 2019/12/05 13:54 UTC (31 minutes ago):

KMEM 051354Z 00000KT 10SM FEW130 BKN160 08/03 A3011 RMK AO2 SLP196 T00780033

Closest aviation forecast (TAF) to Hernando Village Airpark, Inc Airport

Closest forecast is Memphis International Airport, 15.0 nm (27.7 km) NNE. Retrieved 2019/12/05 12:27 UTC (2 hours ago):

TAF KMEM 051125Z 0512/0618 VRB03KT P6SM FEW150 BKN200 FM051600 18008KT P6SM FEW100 BKN150 FM060300 16006KT P6SM OVC100 FM060900 15005KT P6SM VCSH SCT020 OVC040 FM061200 14004KT 4SM -SHRA BR OVC010